Time;durP1;ratioP1;P1;durP2;ratioP2;P2;SDS_P1;SDS_P2;PMS_P1;PMS_P2;Temp;Humidity;BMP_temperature;BMP_pressure;BME280_temperature;BME280_humidity;BME280_pressure;Samples;Min_cycle;Max_cycle;Signal;HPM_P1;HPM_P2
2022/01/18 00:01:32;;;;;;;9.77;5.95;;;;;;;;;;5052484;28;20037;-70
2022/01/18 00:03:58;;;;;;;8.35;5.65;;;;;;;;;;5054608;28;20576;-70
2022/01/18 00:06:23;;;;;;;8.52;5.43;;;;;;;;;;5051432;28;20032;-70
2022/01/18 00:08:48;;;;;;;8.30;6.10;;;;;;;;;;5070054;28;20032;-69
2022/01/18 00:11:16;;;;;;;7.63;5.35;;;;;;;;;;5070102;28;20682;-70
2022/01/18 00:13:45;;;;;;;7.50;5.03;;;;;;;;;;5054899;28;20036;-70
2022/01/18 00:19:14;;;;;;;8.40;5.03;;;;;;;;;;4981599;28;20119;-70
2022/01/18 00:24:23;;;;;;;6.90;5.07;;;;;;;;;;5057359;28;20446;-70
2022/01/18 00:26:49;;;;;;;8.02;5.30;;;;;;;;;;5056249;28;20060;-70
2022/01/18 00:29:17;;;;;;;5.20;4.35;;;;;;;;;;5057866;28;20060;-69
2022/01/18 00:34:21;;;;;;;5.30;4.03;;;;;;;;;;5056290;28;20496;-70
2022/01/18 00:37:23;;;;;;;5.72;4.38;;;;;;;;;;5057869;28;20062;-70
2022/01/18 00:39:43;;;;;;;4.68;4.00;;;;;;;;;;5058682;28;20461;-70
2022/01/18 00:42:09;;;;;;;5.20;4.20;;;;;;;;;;5058683;28;20028;-70
2022/01/18 00:44:34;;;;;;;5.32;4.35;;;;;;;;;;5056527;28;20036;-70
2022/01/18 00:47:00;;;;;;;7.15;4.35;;;;;;;;;;5059851;28;20415;-69
2022/01/18 00:49:25;;;;;;;5.97;4.25;;;;;;;;;;5053896;28;20024;-70
2022/01/18 00:51:56;;;;;;;5.07;4.32;;;;;;;;;;5051914;28;20145;-71
2022/01/18 00:54:25;;;;;;;6.72;4.80;;;;;;;;;;5052254;28;20028;-71
2022/01/18 00:56:53;;;;;;;5.10;4.15;;;;;;;;;;5039521;28;20514;-71
2022/01/18 00:59:19;;;;;;;5.90;4.63;;;;;;;;;;5053068;28;20552;-71
2022/01/18 01:01:44;;;;;;;5.32;4.03;;;;;;;;;;5053361;28;20041;-71
2022/01/18 01:04:10;;;;;;;5.85;4.13;;;;;;;;;;5051781;28;20566;-71
2022/01/18 01:06:35;;;;;;;7.07;4.70;;;;;;;;;;5050770;28;20021;-71
2022/01/18 01:09:01;;;;;;;5.53;4.28;;;;;;;;;;5053661;28;20491;-71
2022/01/18 01:11:27;;;;;;;5.75;4.55;;;;;;;;;;5053768;28;20042;-70
2022/01/18 01:13:53;;;;;;;6.95;4.47;;;;;;;;;;5052778;28;20851;-70
2022/01/18 01:35:14;;;;;;;6.53;4.78;;;;;;;;;;5048348;28;20040;-71
2022/01/18 01:43:26;;;;;;;8.27;5.25;;;;;;;;;;5051982;28;20087;-71
2022/01/18 01:45:52;;;;;;;7.07;4.85;;;;;;;;;;5051681;28;20060;-71
2022/01/18 01:48:18;;;;;;;5.90;4.53;;;;;;;;;;5051733;28;20112;-71
2022/01/18 01:53:10;;;;;;;9.75;4.78;;;;;;;;;;5049601;28;20045;-71
2022/01/18 01:55:35;;;;;;;6.82;4.63;;;;;;;;;;5050326;28;20577;-70
2022/01/18 01:58:00;;;;;;;6.88;4.97;;;;;;;;;;5049201;28;20032;-71
2022/01/18 02:00:25;;;;;;;7.25;5.25;;;;;;;;;;5048433;28;20140;-71
2022/01/18 02:02:51;;;;;;;7.40;5.30;;;;;;;;;;5050538;28;20059;-71
2022/01/18 02:05:16;;;;;;;5.65;4.70;;;;;;;;;;5050861;28;20162;-70
2022/01/18 02:07:41;;;;;;;8.60;5.10;;;;;;;;;;5051592;28;20035;-70
2022/01/18 02:10:07;;;;;;;6.82;5.35;;;;;;;;;;5050376;28;20036;-71
2022/01/18 02:12:33;;;;;;;7.20;5.50;;;;;;;;;;5036518;28;20127;-71
2022/01/18 02:15:02;;;;;;;6.93;5.57;;;;;;;;;;5051859;28;20080;-71
2022/01/18 02:22:55;;;;;;;8.27;5.28;;;;;;;;;;5051294;28;20043;-71
2022/01/18 02:25:21;;;;;;;9.10;5.63;;;;;;;;;;5065911;28;20032;-71
2022/01/18 02:27:46;;;;;;;7.95;5.72;;;;;;;;;;5049295;28;20060;-70
2022/01/18 02:30:12;;;;;;;13.38;6.10;;;;;;;;;;5047338;28;20121;-71
2022/01/18 02:32:37;;;;;;;8.68;6.07;;;;;;;;;;5052207;28;20469;-70
2022/01/18 02:35:03;;;;;;;7.70;5.22;;;;;;;;;;5049650;28;20573;-71
2022/01/18 02:37:28;;;;;;;6.82;5.22;;;;;;;;;;5036866;28;20033;-71
2022/01/18 02:39:53;;;;;;;9.77;5.95;;;;;;;;;;5050354;28;20024;-70
2022/01/18 02:42:26;;;;;;;9.02;5.45;;;;;;;;;;5048883;28;20106;-70
2022/01/18 02:44:52;;;;;;;9.07;5.47;;;;;;;;;;5051716;28;20122;-71
2022/01/18 02:47:18;;;;;;;6.78;5.10;;;;;;;;;;5049929;28;20029;-70
2022/01/18 02:49:43;;;;;;;8.13;5.50;;;;;;;;;;5050114;28;20025;-71
2022/01/18 02:52:09;;;;;;;8.63;5.18;;;;;;;;;;5050078;28;20025;-71
2022/01/18 02:54:34;;;;;;;7.20;5.45;;;;;;;;;;5049583;28;20456;-70
2022/01/18 02:57:02;;;;;;;8.13;5.43;;;;;;;;;;5066538;28;20530;-71
2022/01/18 02:59:43;;;;;;;7.03;5.03;;;;;;;;;;5048848;28;20036;-72
2022/01/18 03:05:09;;;;;;;7.80;5.28;;;;;;;;;;5050509;28;20367;-70
2022/01/18 03:07:34;;;;;;;7.25;5.50;;;;;;;;;;5049549;28;20479;-71
2022/01/18 03:10:00;;;;;;;7.65;5.90;;;;;;;;;;5050236;28;20037;-71
2022/01/18 03:12:25;;;;;;;8.95;5.85;;;;;;;;;;5049703;28;20033;-70
2022/01/18 03:14:50;;;;;;;7.03;5.60;;;;;;;;;;5050323;28;20025;-70
2022/01/18 03:17:16;;;;;;;7.15;5.78;;;;;;;;;;5047589;28;20038;-71
2022/01/18 03:19:41;;;;;;;8.20;5.65;;;;;;;;;;5052318;28;20020;-71
2022/01/18 03:22:07;;;;;;;9.30;5.50;;;;;;;;;;5047413;28;20415;-71
2022/01/18 03:24:46;;;;;;;11.75;6.30;;;;;;;;;;5047911;28;20450;-71
2022/01/18 03:29:55;;;;;;;9.25;6.18;;;;;;;;;;5050744;28;20031;-71
2022/01/18 03:32:20;;;;;;;7.55;5.40;;;;;;;;;;5050034;28;20037;-71
2022/01/18 03:34:46;;;;;;;7.90;5.18;;;;;;;;;;5049149;28;20059;-71
2022/01/18 03:37:11;;;;;;;11.25;6.45;;;;;;;;;;5064244;28;20025;-71
2022/01/18 03:39:36;;;;;;;10.13;6.32;;;;;;;;;;5047656;28;20045;-71
2022/01/18 03:45:01;;;;;;;6.95;5.32;;;;;;;;;;5037672;28;20449;-70
2022/01/18 03:47:26;;;;;;;7.88;5.35;;;;;;;;;;5047924;28;20032;-70
2022/01/18 03:49:52;;;;;;;8.52;6.47;;;;;;;;;;5052513;28;21373;-70
2022/01/18 03:52:17;;;;;;;7.03;5.50;;;;;;;;;;5053070;28;20066;-70
2022/01/18 03:54:47;;;;;;;8.90;6.20;;;;;;;;;;5052578;28;20066;-71
2022/01/18 03:57:12;;;;;;;8.88;5.93;;;;;;;;;;5051933;28;20474;-71
2022/01/18 03:59:37;;;;;;;10.00;5.78;;;;;;;;;;5057133;28;20064;-71
2022/01/18 04:02:03;;;;;;;8.98;6.20;;;;;;;;;;5053323;28;20060;-71
2022/01/18 04:04:28;;;;;;;9.02;5.90;;;;;;;;;;5052581;28;20332;-70
2022/01/18 04:06:53;;;;;;;8.55;5.90;;;;;;;;;;5052887;28;20082;-71
2022/01/18 04:09:20;;;;;;;10.18;6.45;;;;;;;;;;5050988;28;20131;-71
2022/01/18 04:11:45;;;;;;;9.35;6.03;;;;;;;;;;5052344;28;20071;-70
2022/01/18 04:14:11;;;;;;;8.55;6.07;;;;;;;;;;5052685;28;20032;-71
2022/01/18 04:16:44;;;;;;;7.32;5.88;;;;;;;;;;5052951;28;20269;-71
2022/01/18 04:25:48;;;;;;;9.23;6.43;;;;;;;;;;5052874;28;20025;-71
2022/01/18 04:27:40;;;;;;;9.82;5.80;;;;;;;;;;5062876;28;20407;-71
2022/01/18 04:30:06;;;;;;;9.00;6.35;;;;;;;;;;5053733;28;20086;-71
2022/01/18 04:32:31;;;;;;;8.35;6.05;;;;;;;;;;5054635;28;21002;-70
2022/01/18 04:34:57;;;;;;;8.75;6.18;;;;;;;;;;5055241;28;20028;-71
2022/01/18 04:37:22;;;;;;;9.57;6.45;;;;;;;;;;5057381;28;20105;-71
2022/01/18 04:39:48;;;;;;;9.50;6.85;;;;;;;;;;5055023;28;20032;-71
2022/01/18 04:42:41;;;;;;;9.93;7.30;;;;;;;;;;5055909;28;20033;-70
2022/01/18 04:50:34;;;;;;;11.85;6.90;;;;;;;;;;5054825;28;20047;-71
2022/01/18 04:52:59;;;;;;;9.38;6.70;;;;;;;;;;5055778;28;20028;-70
2022/01/18 04:55:31;;;;;;;9.38;6.82;;;;;;;;;;5049842;28;20029;-72
2022/01/18 04:57:56;;;;;;;11.15;7.13;;;;;;;;;;5034951;28;20569;-71
2022/01/18 05:00:22;;;;;;;11.00;6.95;;;;;;;;;;5051788;28;20572;-70
2022/01/18 05:02:47;;;;;;;11.70;7.60;;;;;;;;;;5051247;28;20033;-71
2022/01/18 05:05:22;;;;;;;11.55;7.47;;;;;;;;;;5049631;28;20037;-70
2022/01/18 05:07:48;;;;;;;11.32;7.32;;;;;;;;;;5054505;28;20089;-71
2022/01/18 05:10:16;;;;;;;10.38;7.30;;;;;;;;;;5052275;28;20032;-70
2022/01/18 05:12:46;;;;;;;15.43;8.13;;;;;;;;;;5051036;28;20124;-71
2022/01/18 05:16:26;;;;;;;11.68;7.93;;;;;;;;;;5050288;28;20077;-71
2022/01/18 05:23:34;;;;;;;11.02;7.05;;;;;;;;;;5051567;28;20128;-71
2022/01/18 05:25:59;;;;;;;10.75;7.28;;;;;;;;;;5052048;28;20045;-71
2022/01/18 05:28:25;;;;;;;10.25;7.03;;;;;;;;;;5050554;28;20955;-71
2022/01/18 05:30:50;;;;;;;13.10;7.43;;;;;;;;;;5051119;28;20525;-70
2022/01/18 05:33:15;;;;;;;13.93;8.00;;;;;;;;;;5051812;28;20057;-71
2022/01/18 05:35:41;;;;;;;11.45;7.28;;;;;;;;;;5054756;28;20702;-71
2022/01/18 05:38:06;;;;;;;10.68;7.25;;;;;;;;;;5050856;28;20024;-71
2022/01/18 05:40:31;;;;;;;14.40;7.90;;;;;;;;;;5048032;28;20032;-71
2022/01/18 05:42:57;;;;;;;11.30;7.28;;;;;;;;;;5052736;28;20034;-71
2022/01/18 05:45:22;;;;;;;11.15;7.25;;;;;;;;;;5051713;28;20494;-70
2022/01/18 05:47:47;;;;;;;12.90;7.75;;;;;;;;;;5050524;28;20108;-71
2022/01/18 05:50:13;;;;;;;11.90;7.55;;;;;;;;;;5051381;28;20115;-71
2022/01/18 05:52:39;;;;;;;14.50;7.90;;;;;;;;;;5052448;28;20024;-70
2022/01/18 05:55:05;;;;;;;15.82;8.52;;;;;;;;;;5065936;28;20032;-71
2022/01/18 05:57:31;;;;;;;13.52;8.60;;;;;;;;;;5050534;28;20029;-70
2022/01/18 06:00:03;;;;;;;12.40;8.15;;;;;;;;;;5050155;28;20039;-71
2022/01/18 06:07:46;;;;;;;12.55;8.10;;;;;;;;;;5049937;28;19926;-71
2022/01/18 06:10:12;;;;;;;14.15;8.48;;;;;;;;;;5050439;28;20036;-71
2022/01/18 06:12:39;;;;;;;14.65;9.00;;;;;;;;;;5050610;28;20085;-71
2022/01/18 06:15:05;;;;;;;15.40;9.32;;;;;;;;;;5051482;28;20031;-70
2022/01/18 06:17:30;;;;;;;13.13;8.90;;;;;;;;;;5066747;28;20037;-71
2022/01/18 06:19:55;;;;;;;17.05;9.65;;;;;;;;;;5051423;28;20170;-71
2022/01/18 06:22:21;;;;;;;14.38;9.20;;;;;;;;;;5051160;28;20028;-70
2022/01/18 06:24:46;;;;;;;17.80;9.40;;;;;;;;;;5052213;28;20071;-71
2022/01/18 06:27:11;;;;;;;13.20;8.38;;;;;;;;;;5051333;28;20090;-71
2022/01/18 06:29:37;;;;;;;14.35;9.13;;;;;;;;;;5049143;28;20532;-71
2022/01/18 06:32:03;;;;;;;13.30;8.32;;;;;;;;;;5033447;28;20124;-71
2022/01/18 06:34:29;;;;;;;12.80;8.38;;;;;;;;;;5048974;28;20037;-71
2022/01/18 06:36:54;;;;;;;13.55;8.60;;;;;;;;;;5053573;28;20341;-71
2022/01/18 06:39:19;;;;;;;13.95;8.45;;;;;;;;;;5050029;28;20028;-70
2022/01/18 06:41:45;;;;;;;12.75;8.65;;;;;;;;;;5051417;28;20024;-71
2022/01/18 06:44:10;;;;;;;13.50;8.10;;;;;;;;;;5050587;28;20028;-71
2022/01/18 06:46:35;;;;;;;13.60;8.05;;;;;;;;;;5050627;28;20109;-71
2022/01/18 06:49:01;;;;;;;12.60;7.95;;;;;;;;;;5049290;28;20053;-71
2022/01/18 06:51:26;;;;;;;11.95;7.53;;;;;;;;;;5049959;28;20105;-71
2022/01/18 06:53:51;;;;;;;14.30;8.65;;;;;;;;;;5051265;28;20105;-71
2022/01/18 06:56:18;;;;;;;16.15;8.90;;;;;;;;;;5034410;28;20020;-71
2022/01/18 06:58:44;;;;;;;12.43;8.25;;;;;;;;;;5052412;28;20021;-71
2022/01/18 07:01:10;;;;;;;14.30;8.60;;;;;;;;;;5063962;28;20551;-71
2022/01/18 07:03:35;;;;;;;16.23;9.45;;;;;;;;;;5035524;28;20436;-70
2022/01/18 07:06:00;;;;;;;14.15;7.90;;;;;;;;;;5065011;28;20120;-70
2022/01/18 07:08:26;;;;;;;12.63;7.05;;;;;;;;;;5062196;28;20131;-70
2022/01/18 07:10:51;;;;;;;12.45;7.15;;;;;;;;;;5047868;28;20028;-70
2022/01/18 07:13:16;;;;;;;9.77;6.70;;;;;;;;;;5051470;28;20060;-70
2022/01/18 07:15:41;;;;;;;13.27;7.35;;;;;;;;;;5049020;28;20139;-71
2022/01/18 07:18:08;;;;;;;11.68;7.80;;;;;;;;;;5063811;28;20056;-71
2022/01/18 07:20:34;;;;;;;13.05;8.68;;;;;;;;;;5050109;28;20033;-71
2022/01/18 07:22:59;;;;;;;15.50;9.27;;;;;;;;;;5050133;28;20048;-71
2022/01/18 07:25:26;;;;;;;10.25;7.18;;;;;;;;;;5050951;28;20499;-71
2022/01/18 07:27:51;;;;;;;9.90;6.00;;;;;;;;;;5051910;28;20029;-71
2022/01/18 07:30:16;;;;;;;9.30;6.15;;;;;;;;;;5054055;28;20032;-70
2022/01/18 07:32:42;;;;;;;9.32;6.40;;;;;;;;;;5053252;28;20068;-71
2022/01/18 07:35:08;;;;;;;11.50;7.50;;;;;;;;;;5052676;28;20113;-71
2022/01/18 07:37:34;;;;;;;9.57;6.88;;;;;;;;;;5053956;28;20402;-71
2022/01/18 07:39:59;;;;;;;8.43;6.03;;;;;;;;;;5053533;28;20032;-70
2022/01/18 07:42:24;;;;;;;9.20;5.65;;;;;;;;;;5054896;28;20059;-71
2022/01/18 07:44:50;;;;;;;9.10;6.15;;;;;;;;;;5054339;28;20563;-71
2022/01/18 07:47:15;;;;;;;13.80;8.20;;;;;;;;;;5022551;28;20037;-70
2022/01/18 07:49:41;;;;;;;15.10;9.02;;;;;;;;;;5049417;28;20036;-71
2022/01/18 07:52:06;;;;;;;14.63;8.68;;;;;;;;;;5071844;28;20123;-71
2022/01/18 07:54:32;;;;;;;14.07;8.68;;;;;;;;;;5054135;28;20055;-70
2022/01/18 07:56:57;;;;;;;15.57;8.05;;;;;;;;;;5054863;28;20055;-71
2022/01/18 07:59:23;;;;;;;11.63;6.95;;;;;;;;;;5036783;28;20071;-71
2022/01/18 08:01:48;;;;;;;13.00;6.97;;;;;;;;;;5055613;28;20067;-71
2022/01/18 08:04:13;;;;;;;10.15;6.43;;;;;;;;;;5037241;28;20533;-70
2022/01/18 08:06:40;;;;;;;11.82;7.07;;;;;;;;;;5056119;28;20067;-71
2022/01/18 08:09:05;;;;;;;13.48;7.25;;;;;;;;;;5039510;28;20031;-71
2022/01/18 08:11:31;;;;;;;12.60;8.35;;;;;;;;;;5051349;28;20401;-71
2022/01/18 08:13:57;;;;;;;14.23;8.52;;;;;;;;;;5052854;28;20613;-71
2022/01/18 08:18:57;;;;;;;16.60;8.40;;;;;;;;;;5048783;28;20056;-71
2022/01/18 08:21:23;;;;;;;11.23;7.15;;;;;;;;;;5053728;28;20032;-71
2022/01/18 08:23:48;;;;;;;11.20;7.30;;;;;;;;;;5052881;28;20043;-71
2022/01/18 08:26:14;;;;;;;11.52;7.22;;;;;;;;;;5054915;28;20028;-71
2022/01/18 08:28:39;;;;;;;11.27;6.07;;;;;;;;;;5055260;28;20033;-71
2022/01/18 08:31:04;;;;;;;10.63;5.47;;;;;;;;;;5053690;28;20040;-71
2022/01/18 08:33:33;;;;;;;7.05;5.30;;;;;;;;;;5054299;28;20035;-71
2022/01/18 08:35:59;;;;;;;12.27;5.43;;;;;;;;;;5041484;28;20060;-71
2022/01/18 08:38:28;;;;;;;7.25;4.43;;;;;;;;;;5037561;28;20628;-71
2022/01/18 08:40:54;;;;;;;6.35;4.45;;;;;;;;;;5054086;28;20534;-70
2022/01/18 08:43:20;;;;;;;7.90;4.63;;;;;;;;;;5038549;28;20086;-71
2022/01/18 08:45:45;;;;;;;9.10;4.82;;;;;;;;;;5053454;28;20039;-71
2022/01/18 08:48:10;;;;;;;9.23;5.22;;;;;;;;;;5036428;28;20455;-71
2022/01/18 08:50:36;;;;;;;8.27;4.95;;;;;;;;;;5053742;28;20413;-70
2022/01/18 08:53:01;;;;;;;7.00;5.10;;;;;;;;;;5053975;28;20036;-71
2022/01/18 08:55:26;;;;;;;10.13;4.50;;;;;;;;;;5055663;28;20021;-71
2022/01/18 08:57:52;;;;;;;6.53;4.03;;;;;;;;;;5052774;28;20033;-71
2022/01/18 09:00:17;;;;;;;5.40;3.67;;;;;;;;;;5051872;28;20076;-70
2022/01/18 09:02:43;;;;;;;5.55;3.90;;;;;;;;;;5065996;28;20144;-70
2022/01/18 09:05:08;;;;;;;7.18;3.60;;;;;;;;;;5053575;28;20119;-70
2022/01/18 09:07:36;;;;;;;4.55;4.05;;;;;;;;;;5052318;28;20020;-71
2022/01/18 09:10:06;;;;;;;7.25;3.80;;;;;;;;;;5037901;28;20542;-71
2022/01/18 09:12:31;;;;;;;8.02;4.05;;;;;;;;;;5049867;28;20434;-71
2022/01/18 09:15:00;;;;;;;6.45;3.85;;;;;;;;;;5052415;28;20036;-71
2022/01/18 09:17:27;;;;;;;5.60;3.90;;;;;;;;;;5015844;28;1075866;-71
2022/01/18 09:19:52;;;;;;;5.82;3.95;;;;;;;;;;5052666;28;20051;-71
2022/01/18 09:22:18;;;;;;;5.03;3.60;;;;;;;;;;5053450;28;20044;-71
2022/01/18 09:24:43;;;;;;;5.55;3.42;;;;;;;;;;5050333;28;20074;-71
2022/01/18 09:27:08;;;;;;;8.23;4.05;;;;;;;;;;5049553;28;20055;-71
2022/01/18 09:29:34;;;;;;;6.68;3.83;;;;;;;;;;5048433;28;20387;-71
2022/01/18 09:31:59;;;;;;;7.97;4.80;;;;;;;;;;5047039;28;20132;-70
2022/01/18 09:34:25;;;;;;;6.97;4.70;;;;;;;;;;5053795;28;20071;-71
2022/01/18 09:36:50;;;;;;;8.80;5.07;;;;;;;;;;5050166;28;20075;-70
2022/01/18 09:39:15;;;;;;;7.78;4.82;;;;;;;;;;5049505;28;20112;-70
2022/01/18 09:41:43;;;;;;;8.23;5.43;;;;;;;;;;5054894;28;20060;-71
2022/01/18 09:44:09;;;;;;;8.55;4.78;;;;;;;;;;5054101;28;20028;-70
2022/01/18 09:46:34;;;;;;;11.18;5.82;;;;;;;;;;5053080;28;20056;-70
2022/01/18 09:49:00;;;;;;;8.38;5.80;;;;;;;;;;5048829;28;20122;-71
2022/01/18 09:51:26;;;;;;;9.98;6.53;;;;;;;;;;5048427;28;20082;-71
2022/01/18 09:53:51;;;;;;;11.45;7.25;;;;;;;;;;5052883;28;20040;-71
2022/01/18 09:56:17;;;;;;;13.90;7.63;;;;;;;;;;5049588;28;20060;-71
2022/01/18 09:58:43;;;;;;;14.32;7.53;;;;;;;;;;5047584;28;20112;-71
2022/01/18 10:01:08;;;;;;;12.00;7.43;;;;;;;;;;5045407;28;20037;-71
2022/01/18 10:03:35;;;;;;;13.30;7.82;;;;;;;;;;5048936;28;20039;-71
2022/01/18 10:06:05;;;;;;;11.60;7.88;;;;;;;;;;5036055;28;20111;-70
2022/01/18 10:08:30;;;;;;;12.55;8.00;;;;;;;;;;5050905;28;20039;-71
2022/01/18 10:10:57;;;;;;;14.38;8.10;;;;;;;;;;5052375;28;20040;-70
2022/01/18 10:13:24;;;;;;;16.48;7.90;;;;;;;;;;5051254;28;20036;-70
2022/01/18 10:15:59;;;;;;;15.00;8.27;;;;;;;;;;5049910;28;20064;-70
2022/01/18 10:18:35;;;;;;;12.77;7.78;;;;;;;;;;5046741;28;20802;-70
2022/01/18 10:21:00;;;;;;;15.43;8.63;;;;;;;;;;5047424;28;20033;-70
2022/01/18 10:23:26;;;;;;;18.45;8.77;;;;;;;;;;5050904;28;20126;-70
2022/01/18 10:25:52;;;;;;;13.27;7.63;;;;;;;;;;5051844;28;20902;-70
2022/01/18 10:28:31;;;;;;;13.98;8.02;;;;;;;;;;5049419;28;20089;-70
2022/01/18 10:30:57;;;;;;;14.75;8.50;;;;;;;;;;5036551;28;20048;-70
2022/01/18 10:33:28;;;;;;;14.52;8.80;;;;;;;;;;5048618;28;20445;-70
2022/01/18 10:36:04;;;;;;;13.48;8.57;;;;;;;;;;5038084;28;20036;-70
2022/01/18 10:38:29;;;;;;;14.82;9.00;;;;;;;;;;5053643;28;20084;-70
2022/01/18 10:40:55;;;;;;;13.50;8.07;;;;;;;;;;5050491;28;20028;-70
2022/01/18 10:43:32;;;;;;;14.00;8.55;;;;;;;;;;5032822;28;20109;-70
2022/01/18 10:46:13;;;;;;;13.18;8.05;;;;;;;;;;5037801;28;20032;-70
2022/01/18 10:48:48;;;;;;;11.77;7.57;;;;;;;;;;5046171;28;20411;-70
2022/01/18 10:51:27;;;;;;;10.10;7.25;;;;;;;;;;5049003;28;20040;-70
2022/01/18 10:54:00;;;;;;;12.07;7.60;;;;;;;;;;5051522;28;20032;-70
2022/01/18 10:56:26;;;;;;;11.60;8.43;;;;;;;;;;5064156;28;20036;-70
2022/01/18 10:58:55;;;;;;;16.38;8.88;;;;;;;;;;5034834;28;20040;-71
2022/01/18 11:01:21;;;;;;;16.80;8.77;;;;;;;;;;5048400;28;20469;-70
2022/01/18 11:04:10;;;;;;;13.25;7.78;;;;;;;;;;5048063;28;20089;-70
2022/01/18 11:06:36;;;;;;;8.82;6.82;;;;;;;;;;5047409;28;20474;-70
2022/01/18 11:09:12;;;;;;;11.77;6.18;;;;;;;;;;5030070;28;20025;-70
2022/01/18 11:11:44;;;;;;;6.32;4.80;;;;;;;;;;5030044;28;21123;-70
2022/01/18 11:14:11;;;;;;;7.28;4.32;;;;;;;;;;5030366;28;20028;-70
2022/01/18 11:16:41;;;;;;;8.15;4.47;;;;;;;;;;5032531;28;20094;-70
2022/01/18 11:21:46;;;;;;;8.90;4.95;;;;;;;;;;5052532;28;20059;-70
2022/01/18 11:24:12;;;;;;;6.18;3.88;;;;;;;;;;5048254;28;20036;-71
2022/01/18 11:26:39;;;;;;;5.10;3.72;;;;;;;;;;5031750;28;20029;-70
2022/01/18 11:29:05;;;;;;;7.18;3.80;;;;;;;;;;5032635;28;20054;-70
2022/01/18 11:31:31;;;;;;;5.43;4.07;;;;;;;;;;5050564;28;20044;-70
2022/01/18 11:33:59;;;;;;;4.28;3.70;;;;;;;;;;5049638;28;20460;-70
2022/01/18 11:36:25;;;;;;;6.13;3.70;;;;;;;;;;5033766;28;20114;-70
2022/01/18 11:38:53;;;;;;;5.88;3.92;;;;;;;;;;5032844;28;20489;-70
2022/01/18 11:41:29;;;;;;;5.97;4.00;;;;;;;;;;5050809;28;20503;-70
2022/01/18 11:43:56;;;;;;;6.07;4.13;;;;;;;;;;5050899;28;20510;-70
2022/01/18 11:46:31;;;;;;;7.80;3.92;;;;;;;;;;5047954;28;20551;-71
2022/01/18 11:49:08;;;;;;;5.85;3.90;;;;;;;;;;5048707;28;20182;-70
2022/01/18 11:51:45;;;;;;;6.05;3.85;;;;;;;;;;5048894;28;20028;-70
2022/01/18 11:54:27;;;;;;;5.65;3.97;;;;;;;;;;5049773;28;20170;-70
2022/01/18 11:56:52;;;;;;;5.53;3.58;;;;;;;;;;5033315;28;20206;-70
2022/01/18 11:59:26;;;;;;;5.32;4.00;;;;;;;;;;5049536;28;20032;-70
2022/01/18 12:01:56;;;;;;;5.28;3.70;;;;;;;;;;5050099;28;20044;-70
2022/01/18 12:04:51;;;;;;;5.68;3.58;;;;;;;;;;5050919;28;20126;-70
2022/01/18 12:07:49;;;;;;;5.38;3.60;;;;;;;;;;5053042;28;20028;-70
2022/01/18 12:10:38;;;;;;;4.28;3.55;;;;;;;;;;5060759;28;20461;-70
2022/01/18 12:13:04;;;;;;;4.53;3.25;;;;;;;;;;5052363;28;20686;-70
2022/01/18 12:15:32;;;;;;;4.05;3.30;;;;;;;;;;5051395;28;20189;-70
2022/01/18 12:17:59;;;;;;;4.32;3.47;;;;;;;;;;5054823;28;20029;-71
2022/01/18 12:20:33;;;;;;;5.22;3.30;;;;;;;;;;5056099;28;20093;-70
2022/01/18 12:22:59;;;;;;;6.07;3.40;;;;;;;;;;5054895;28;20044;-70
2022/01/18 12:25:30;;;;;;;5.20;3.40;;;;;;;;;;5055346;28;20611;-70
2022/01/18 12:28:01;;;;;;;7.55;3.25;;;;;;;;;;5052152;28;20114;-70
2022/01/18 12:30:39;;;;;;;5.68;4.00;;;;;;;;;;5051239;28;20123;-70
2022/01/18 12:33:20;;;;;;;4.80;3.42;;;;;;;;;;5037780;28;20105;-70
2022/01/18 12:35:46;;;;;;;4.97;3.47;;;;;;;;;;5035706;28;20036;-71
2022/01/18 12:38:22;;;;;;;6.32;4.05;;;;;;;;;;5050013;28;20036;-71
2022/01/18 12:40:47;;;;;;;4.43;3.80;;;;;;;;;;5035481;28;20577;-70
2022/01/18 12:45:40;;;;;;;6.72;3.83;;;;;;;;;;5047060;28;20136;-70
2022/01/18 12:48:09;;;;;;;6.03;3.80;;;;;;;;;;5044676;28;20472;-70
2022/01/18 12:50:36;;;;;;;4.97;3.50;;;;;;;;;;5050172;28;20063;-70
2022/01/18 12:53:03;;;;;;;4.70;3.03;;;;;;;;;;5046487;28;20521;-70
2022/01/18 12:55:42;;;;;;;3.70;3.10;;;;;;;;;;5045215;28;20467;-70
2022/01/18 12:58:20;;;;;;;5.40;3.40;;;;;;;;;;5047586;28;20028;-70
2022/01/18 13:00:51;;;;;;;6.30;3.35;;;;;;;;;;5043966;28;22029;-70
2022/01/18 13:03:17;;;;;;;6.32;3.58;;;;;;;;;;5035823;28;20037;-70
2022/01/18 13:05:43;;;;;;;10.63;3.53;;;;;;;;;;5045543;28;20028;-70
2022/01/18 13:08:09;;;;;;;3.90;3.33;;;;;;;;;;5030629;28;20047;-70
2022/01/18 13:10:38;;;;;;;3.45;3.00;;;;;;;;;;5050527;28;20109;-71
2022/01/18 13:13:04;;;;;;;3.25;2.58;;;;;;;;;;5046932;28;20112;-70
2022/01/18 13:15:40;;;;;;;4.97;2.90;;;;;;;;;;5047767;28;20044;-70
2022/01/18 13:26:27;;;;;;;4.60;3.30;;;;;;;;;;5052174;28;20313;-71
2022/01/18 13:28:52;;;;;;;5.25;3.10;;;;;;;;;;5049054;28;20068;-70
2022/01/18 13:31:20;;;;;;;6.10;3.42;;;;;;;;;;5049139;28;20072;-70
2022/01/18 13:33:49;;;;;;;4.22;3.20;;;;;;;;;;5056069;28;20028;-70
2022/01/18 13:36:14;;;;;;;7.32;3.85;;;;;;;;;;5054047;28;20046;-70
2022/01/18 13:38:40;;;;;;;5.30;3.95;;;;;;;;;;5053558;28;20033;-70
2022/01/18 13:41:05;;;;;;;4.88;3.90;;;;;;;;;;5054828;28;20032;-70
2022/01/18 13:43:30;;;;;;;5.72;3.60;;;;;;;;;;5051888;28;20041;-70
2022/01/18 13:45:56;;;;;;;5.22;3.65;;;;;;;;;;5049095;28;20067;-71
2022/01/18 13:48:32;;;;;;;7.57;4.18;;;;;;;;;;5054780;28;20142;-71
2022/01/18 13:50:58;;;;;;;6.35;3.60;;;;;;;;;;5054453;28;20463;-71
2022/01/18 13:53:28;;;;;;;6.05;3.42;;;;;;;;;;5053851;28;20455;-70
2022/01/18 13:55:57;;;;;;;5.55;3.00;;;;;;;;;;5051627;28;20093;-70
2022/01/18 13:58:30;;;;;;;5.43;3.08;;;;;;;;;;5053897;28;20032;-70
2022/01/18 14:01:14;;;;;;;6.57;3.15;;;;;;;;;;5053826;28;20041;-70
2022/01/18 14:03:43;;;;;;;5.05;4.10;;;;;;;;;;5036993;28;20517;-70
2022/01/18 14:06:11;;;;;;;5.28;3.38;;;;;;;;;;5047047;28;20032;-71
2022/01/18 14:08:38;;;;;;;6.82;3.90;;;;;;;;;;5052809;28;20028;-71
2022/01/18 14:11:05;;;;;;;4.72;3.47;;;;;;;;;;5050649;28;20494;-70
2022/01/18 14:13:35;;;;;;;5.40;3.28;;;;;;;;;;5049395;28;20643;-70
2022/01/18 14:16:02;;;;;;;5.65;3.53;;;;;;;;;;5049352;28;20112;-70
2022/01/18 14:18:27;;;;;;;5.78;3.70;;;;;;;;;;5017324;28;20386;-70
2022/01/18 14:20:52;;;;;;;6.93;4.07;;;;;;;;;;5048555;28;20047;-71
2022/01/18 14:23:21;;;;;;;4.55;3.13;;;;;;;;;;5047816;28;20032;-70
2022/01/18 14:25:46;;;;;;;5.82;3.33;;;;;;;;;;5050269;28;20043;-70
2022/01/18 14:28:14;;;;;;;7.72;3.85;;;;;;;;;;5033237;28;20032;-70
2022/01/18 14:30:43;;;;;;;5.50;3.13;;;;;;;;;;5053235;28;20596;-70
2022/01/18 14:33:10;;;;;;;4.53;3.15;;;;;;;;;;5054489;28;20067;-71
2022/01/18 14:35:45;;;;;;;11.30;5.65;;;;;;;;;;5054384;28;20185;-70
2022/01/18 14:38:12;;;;;;;4.70;3.25;;;;;;;;;;5051842;28;20044;-70
2022/01/18 14:40:45;;;;;;;5.68;3.55;;;;;;;;;;5033809;28;20040;-70
2022/01/18 14:43:26;;;;;;;6.40;3.33;;;;;;;;;;5066937;28;20395;-70
2022/01/18 14:46:03;;;;;;;5.05;3.15;;;;;;;;;;5051701;28;20040;-70
2022/01/18 14:48:32;;;;;;;6.60;3.45;;;;;;;;;;5053355;28;20106;-70
2022/01/18 14:50:58;;;;;;;5.38;2.97;;;;;;;;;;5051197;28;20115;-70
2022/01/18 14:53:25;;;;;;;5.93;3.22;;;;;;;;;;5051614;28;20523;-70
2022/01/18 14:55:51;;;;;;;4.13;2.90;;;;;;;;;;5053870;28;20029;-70
2022/01/18 14:58:17;;;;;;;4.35;2.88;;;;;;;;;;5053127;28;20021;-71
2022/01/18 15:00:42;;;;;;;6.55;2.80;;;;;;;;;;5049721;28;20487;-70
2022/01/18 15:03:07;;;;;;;6.03;2.90;;;;;;;;;;5046342;28;20066;-70
2022/01/18 15:05:33;;;;;;;4.15;2.95;;;;;;;;;;5046478;28;20263;-70
2022/01/18 15:07:59;;;;;;;5.05;3.42;;;;;;;;;;5046550;28;20229;-70
2022/01/18 15:10:24;;;;;;;8.75;3.72;;;;;;;;;;5047173;28;20037;-71
2022/01/18 15:12:50;;;;;;;6.28;2.97;;;;;;;;;;5048613;28;20103;-70
2022/01/18 15:15:18;;;;;;;4.65;2.80;;;;;;;;;;5050170;28;20043;-71
2022/01/18 15:17:43;;;;;;;8.15;3.00;;;;;;;;;;5047506;28;20028;-71
2022/01/18 15:20:09;;;;;;;8.88;3.60;;;;;;;;;;5050526;28;20105;-71
2022/01/18 15:22:34;;;;;;;4.35;2.53;;;;;;;;;;5050738;28;20113;-70
2022/01/18 15:25:00;;;;;;;3.35;2.45;;;;;;;;;;5047733;28;20395;-71
2022/01/18 15:27:25;;;;;;;4.13;2.42;;;;;;;;;;5049301;28;20039;-71
2022/01/18 15:29:50;;;;;;;9.15;4.95;;;;;;;;;;5033934;28;20041;-71
2022/01/18 15:32:16;;;;;;;6.53;3.28;;;;;;;;;;5051132;28;20072;-71
2022/01/18 15:34:42;;;;;;;9.50;3.20;;;;;;;;;;5050858;28;20123;-71
2022/01/18 15:37:07;;;;;;;3.70;2.88;;;;;;;;;;5030697;28;20047;-71
2022/01/18 15:39:34;;;;;;;8.85;3.55;;;;;;;;;;5043903;28;20311;-71
2022/01/18 15:41:59;;;;;;;4.93;3.40;;;;;;;;;;5048696;28;20054;-71
2022/01/18 15:44:25;;;;;;;8.95;3.45;;;;;;;;;;5064842;28;20032;-71
2022/01/18 15:46:50;;;;;;;9.73;3.03;;;;;;;;;;5052832;28;20064;-70
2022/01/18 15:49:15;;;;;;;4.50;2.72;;;;;;;;;;5048892;28;20035;-71
2022/01/18 15:51:41;;;;;;;3.20;2.80;;;;;;;;;;5038208;28;20402;-70
2022/01/18 15:54:06;;;;;;;4.53;2.72;;;;;;;;;;5047063;28;20072;-71
2022/01/18 15:56:31;;;;;;;3.60;2.65;;;;;;;;;;5051007;28;20477;-70
2022/01/18 15:58:57;;;;;;;8.23;2.85;;;;;;;;;;5051362;28;20029;-70
2022/01/18 16:01:23;;;;;;;6.68;2.90;;;;;;;;;;5051371;28;20051;-71
2022/01/18 16:03:48;;;;;;;6.50;3.08;;;;;;;;;;5053301;28;20032;-71
2022/01/18 16:06:13;;;;;;;9.18;3.85;;;;;;;;;;5051031;28;20025;-71
2022/01/18 16:08:40;;;;;;;4.65;3.38;;;;;;;;;;5051093;28;20056;-71